Terminal Aerodrome Forecast
Issued by NWS Cleveland, OH

Home | Current Version | Previous Version | Text Only | Print | Product List | Glossary On
Versions: 1 2 3 4 5 6 7 8 9 10 11 12 13 14 15
000
FTUS41 KCLE 010500
TAFERI
TAF
KERI 010539Z 0106/0206 18003KT P6SM SCT006
     FM010900 VRB03KT 4SM BR BKN006
     FM011400 09005KT P6SM BKN012
     FM011600 09005KT P6SM BKN020
     FM011800 05007KT P6SM BKN035=

USA.gov is the U.S. government's official web portal to all federal, state and local government web resources and services.